Tiempo atmosférico en la estación meteorológica de San Vicente de la Barquera, Cantabria (39 m.)



Fecha
DESCASC
Temp. máxima en grados centígrados (hora)
DESCASC
Temp. mínima en grados centígrados (hora)
DESCASC
Temp. media en grados centígrados
DESCASC
Racha de viento máxima en m/sg (hora)
DESCASC
Velocidad máxima media en intervalos de 10 minutos(hora)
DESCASC
Precipitaciones diarias en mm
DESCASC
Precipitaciones de 00:00 a 06:00 en mm
DESCASC
Precipitaciones de 06:00 a 12:00 en mm
DESCASC
Precipitaciones de 12:00 a 18:00 en mm
DESCASC
Precipitaciones de 18:00 a 24:00 en mm
DESCASC
14-12-2019 17.4 (15:50) 9.7 (04:50) 13.5 6.94 (17:10) 5 (17:20) 0 0 0 0 0
13-12-2019 17.3 (12:50) 11.7 (23:59) 14.5 20.28 (04:20) 12.5 (04:10) 1.2 1 0.2 0 0
12-12-2019 15 (15:10) 9.8 (10:50) 12.4 18.33 (15:50) 10 (16:00) 9.2 0.1 0.5 2.9 5.7
11-12-2019 13.5 (03:50) 9.1 (00:00) 11.3 18.06 (05:00) 12.5 (05:10) 3.9 1 2.5 0 0.4
10-12-2019 14.4 (15:00) 4.9 (00:00) 9.6 8.06 (18:10) 5.56 (18:10) 0 0 0 0 0
09-12-2019 14.2 (11:50) 7.3 (00:00) 10.8 17.22 (12:40) 11.67 (12:40) 0 0 0 0 0
08-12-2019 13.9 (14:40) 8 (00:00) 10.9 15 (15:00) 11.11 (15:00) 2.2 0 0.4 1.8 0
07-12-2019 16.9 (15:30) 5.8 (00:00) 11.3 5.28 (09:00) 4.17 (07:10) 0 0 0 0 0
06-12-2019 13.4 (14:00) 4.6 (00:00) 9 5.28 (02:30) 3.61 (08:50) 0 0 0 0 0
05-12-2019 13.4 (14:20) 8.2 (00:00) 10.8 6.94 (01:10) 3.89 (00:50) 14.8 12.9 1.9 0 0
04-12-2019 12.4 (13:00) 2.2 (00:00) 7.3 6.67 (15:10) 3.89 (14:50) 0.7 0 0 0 0.7
03-12-2019 11.3 (12:30) 3.2 (00:00) 7.3 6.94 (03:50) 3.89 (03:30) 0 0 0 0 0
02-12-2019 12.4 (09:00) 8.4 (00:00) 10.4 13.33 (09:50) 8.61 (09:30) 11.7 10.4 1.3 0 0
01-12-2019 14.1 (13:30) 7 (00:00) 10.6 14.44 (18:10) 11.11 (18:20) 9.4 0 0 5.1 4.3
30-11-2019 15.4 (04:50) 7.5 (00:00) 11.4 12.5 (09:10) 8.33 (07:10) 7.2 0.1 4.7 2.4 0
29-11-2019 17.2 (15:50) 9 (00:00) 13.1 5.83 (05:30) 3.89 (05:30) 0.2 0.2 0 0 0
28-11-2019 14.1 (13:40) 9.6 (00:00) 11.9 7.78 (19:30) 5 (19:30) 7 0.4 0.4 4.3 1.9
27-11-2019 14.6 (14:20) 7.9 (00:00) 11.3 6.67 (00:40) 4.44 (09:20) 1.8 0 0 0.1 1.7
26-11-2019 21.8 (16:20) 9.9 (00:00) 15.8 18.61 (20:00) 9.17 (20:10) 1 0 0 0 1
25-11-2019 16.6 (12:50) 10.7 (00:00) 13.7 8.33 (04:30) 5.56 (04:40) 0.1 0 0.1 0 0
24-11-2019 15.1 (19:30) 10 (00:00) 12.6 13.33 (01:00) 7.22 (02:50) 0.6 0.1 0 0 0.5
23-11-2019 14.2 (00:00) 9.4 (00:00) 11.8 25.28 (03:50) 15.83 (04:50) 36.3 19.3 8.1 5.7 3.2
22-11-2019 20.5 (14:10) 8.2 (00:00) 14.3 14.44 (15:20) 9.17 (15:20) 0.2 0 0.1 0.1 0
21-11-2019 16 (13:10) 6.1 (00:00) 11 7.5 (00:10) 4.72 (00:10) 0.9 0 0.9 0 0
20-11-2019 12.3 (13:50) 6.4 (00:00) 9.4 6.39 (23:59) 4.17 (08:20) 0 0 0 0 0
19-11-2019 13.5 (14:10) 5.3 (00:00) 9.4 5.28 (06:20) 3.89 (08:10) 0 0 0 0 0
18-11-2019 -- (--) -- (--) -- -- (--) -- (--) -- 6.5 10 -- 2.3
17-11-2019 14.4 (12:30) 7.6 (00:00) 11 16.67 (13:20) 10.56 (13:20) 27.7 0.8 4.3 1.4 21.2
16-11-2019 12.9 (12:50) 5.6 (00:00) 9.2 15.56 (11:30) 9.72 (11:30) 1.1 0.2 0.5 0.4 0
15-11-2019 -- (--) -- (--) -- -- (--) -- (--) 29.5 4.3 11.6 8.9 4.7

Gráficas

Temp. máximas Temp. mínimas Temp. medias Precipitaciones Rachas de viento máximas Velocidades máximas media en intervalos de 10 minutos

Datos horarios

Fecha y hora oficial Temperatura (ºC) Velocidad del viento (km/h) Dirección del viento Racha (km/h) Dirección de racha Precipitación (mm) Presión (hPa) Tendencia (hPa) Humedad (%)
2019-12-14 23:00:00 14.1 2 Sudoeste 12 Sur 0 1003 -1.5 56
2019-12-14 22:00:00 12.7 2 Sudoeste 14 Sudoeste 0 1003.2 -1.6 67
2019-12-14 21:00:00 11.7 10 Sur 15 Sur 0 1003.7 -1.2 78
2019-12-14 20:00:00 11.7 12 Sur 15 Sur 0 1004.5 -0.5 81
2019-12-14 19:00:00 13.2 3 Sudoeste 16 Oeste 0 1004.8 -0.4 77
2019-12-14 18:00:00 13.9 10 Oeste 25 Oeste 0 1004.9 -0.5 74
2019-12-14 17:00:00 14.6 17 Oeste 24 Oeste 0 1005 -1.6 59
2019-12-14 16:00:00 17.3 4 Sur 17 Sur 0 1005.2 -2.1 49
2019-12-14 15:00:00 15.6 2 Sudeste 10 Oeste 0 1005.4 -2.6 72
2019-12-14 14:00:00 14.6 11 Oeste 15 Oeste 0 1006.6 -1.7 67
2019-12-14 13:00:00 15.7 0 Calma 13 Sudeste 0 1007.3 -0.8 59
2019-12-14 12:00:00 14 0 Calma 13 Sur 0 1008 0 66
2019-12-14 11:00:00 12.3 8 Sur 17 Sur 0 1008.3 0.5 72
2019-12-14 10:00:00 10.1 14 Sur 18 Sur 0 1008.1 0.3 80
2019-12-14 09:00:00 11 6 Sudoeste 19 Sur 0 1008 0.3 71
2019-12-14 08:00:00 11.2 8 Sudoeste 18 Sudoeste 0 1007.8 0.3 71
2019-12-14 07:00:00 10.5 8 Sudoeste 19 Sudoeste 0 1007.8 -0.1 81
2019-12-14 06:00:00 10.2 13 Sur 18 Sudoeste 0 1007.7 0.2 84
2019-12-14 05:00:00 9.7 13 Sur 17 Sur 0 1007.5 0.1 89
2019-12-14 04:00:00 10.1 13 Sudoeste 17 Sur 0 1007.9 0.2 87
2019-12-14 03:00:00 11 9 Sudoeste 17 Sudoeste 0 1007.5 0.1 83
2019-12-14 02:00:00 11.6 10 Sudoeste 16 Sudoeste 0 1007.4 -0.3 82
2019-12-14 01:00:00 11.8 5 Sudoeste 16 Sudoeste 0 1007.7 0.2 84
2019-12-14 00:00:00 11.7 9 Sur 27 Oeste 0 1007.4 -0.2 86
2019-12-13 23:00:00 13.5 19 Oeste 30 Oeste 0 1007.7 0.3 85
2019-12-13 22:00:00 13.8 24 Oeste 46 Noroeste 0 1007.5 0.9 81
2019-12-13 21:00:00 14.2 25 Oeste 42 Oeste 0 1007.6 1.3 77
2019-12-13 20:00:00 14.3 19 Oeste 47 Oeste 0 1007.4 1.6 81
2019-12-13 19:00:00 14.2 31 Oeste 46 Oeste 0 1006.6 1.5 84
2019-12-13 18:00:00 14.4 25 Oeste 51 Oeste 0 1006.3 1.3 86
2019-12-13 17:00:00 14.6 34 Oeste 57 Oeste 0 1005.8 1.2 84
2019-12-13 16:00:00 15 33 Oeste 59 Oeste 0 1005.1 -0.1 84
2019-12-13 15:00:00 15.4 28 Oeste 60 Oeste 0 1005 -0.9 82
2019-12-13 14:00:00 15.4 33 Noroeste 53 Noroeste 0 1004.6 -1.4 80
2019-12-13 13:00:00 16.6 27 Noroeste 56 Oeste 0 1005.2 0.3 67
2019-12-13 12:00:00 16 28 Noroeste 55 Oeste 0 1005.9 1.6 75
2019-12-13 11:00:00 15.6 37 Oeste 62 Oeste 0 1006 2.1 76
2019-12-13 10:00:00 15.9 36 Oeste 57 Oeste 0 1004.9 2.3 71
2019-12-13 09:00:00 15 31 Oeste 56 Oeste 0 1004.3 3.3 80
2019-12-13 08:00:00 13.8 22 Oeste 61 Oeste 0.2 1003.9 2.9 91
2019-12-13 07:00:00 14.1 35 Oeste 64 Noroeste 0 1002.6 2.3 88
2019-12-13 06:00:00 15 30 Oeste 55 Noroeste 0 1001 1 83
2019-12-13 05:00:00 14.4 32 Oeste 73 Noroeste 0 1001 0.5 87
2019-12-13 04:00:00 14.8 42 Noroeste 64 Noroeste 0 1000.3 -1.5 84
2019-12-13 03:00:00 15 32 Noroeste 59 Oeste 0.3 1000 -1.4 81
2019-12-13 02:00:00 14.4 21 Oeste 48 Oeste 0.5 1000.5 -0.7 91
2019-12-13 01:00:00 14.2 20 Oeste 44 Noroeste 0.2 1001.8 0.8 92
2019-12-13 00:00:00 13.6 28 Oeste 46 Oeste 0.4 1001.4 0.1 95
2019-12-12 23:00:00 13.7 25 Oeste 38 Oeste 0.8 1001.2 -0.4 94
2019-12-12 22:00:00 13.8 25 Oeste 41 Oeste 1.9 1001 -1.1 93
2019-12-12 21:00:00 13.8 17 Oeste 43 Oeste 0.5 1001.3 -0.2 90
2019-12-12 20:00:00 13.9 26 Oeste 56 Oeste 0.3 1001.6 0.7 90
2019-12-12 19:00:00 13.4 31 Oeste 63 Oeste 1.8 1002.1 1.5 94
2019-12-12 18:00:00 13.6 34 Oeste 65 Oeste 1 1001.5 0.8 90
2019-12-12 17:00:00 13.6 30 Oeste 62 Oeste 1.1 1000.9 -0.4 85
2019-12-12 16:00:00 14.1 36 Oeste 66 Oeste 0.3 1000.6 -2.2 77
2019-12-12 15:00:00 14.7 28 Oeste 64 Oeste 0.1 1000.7 -4.5 68
2019-12-12 14:00:00 14.4 21 Oeste 46 Oeste 0.1 1001.3 -5.3 68
2019-12-12 13:00:00 11.1 5 Sur 27 Sudoeste 0.3 1002.8 -5.9 81
2019-12-12 12:00:00 10.1 7 Sur 14 Sur 0.1 1005.2 -4.1 87
2019-12-12 11:00:00 9.9 9 Sur 13 Sur 0 1006.6 -3.2 87
2019-12-12 10:00:00 10.3 6 Sur 26 Oeste 0.3 1008.7 -1.5 81
2019-12-12 09:00:00 11.3 3 Sudoeste 35 Noroeste 0.1 1009.3 -2 74
2019-12-12 08:00:00 12.1 9 Oeste 28 Oeste 0 1009.8 -2.6 65
2019-12-12 07:00:00 10.7 6 Sur 19 Sur 0 1010.2 -3.4 69
2019-12-12 06:00:00 11.3 3 Sudoeste 18 Oeste 0.1 1011.3 -2.9 66
2019-12-12 05:00:00 11.4 0 Calma 31 Oeste 0 1012.4 -2.7 64
2019-12-12 04:00:00 12.2 9 Oeste 30 Oeste 0 1013.6 -2.1 60
2019-12-12 03:00:00 12.5 12 Oeste 33 Oeste 0 1014.2 -2 57
2019-12-12 02:00:00 12.6 17 Oeste 51 Oeste 0 1015.1 -1.1 59
2019-12-12 01:00:00 12.6 24 Oeste 40 Noroeste 0 1015.7 -1.1 58
2019-12-12 00:00:00 12.5 21 Oeste 51 Oeste 0 1016.2 -0.9 60
2019-12-11 23:00:00 12.2 20 Oeste 45 Oeste 0 1016.2 -1.3 59
2019-12-11 22:00:00 12.1 27 Oeste 48 Oeste 0 1016.8 -0.5 62
2019-12-11 21:00:00 11.1 18 Oeste 46 Noroeste 0.1 1017.1 0.4 69
2019-12-11 20:00:00 10.2 36 Noroeste 65 Oeste 0.3 1017.5 1.3 80
2019-12-11 19:00:00 12.8 31 Oeste 63 Oeste 0 1017.3 1.3 50
2019-12-11 18:00:00 12.9 35 Oeste 60 Oeste 0 1016.7 0.1 49
2019-12-11 17:00:00 12.9 31 Oeste 51 Oeste 0 1016.2 -1.5 46
2019-12-11 16:00:00 13.3 33 Oeste 55 Oeste 0 1016 -2.5 44
2019-12-11 15:00:00 13.2 25 Oeste 46 Oeste 0 1016.6 -2.5 43
2019-12-11 14:00:00 12.6 24 Oeste 48 Oeste 0 1017.7 -1.5 47
2019-12-11 13:00:00 12 27 Oeste 45 Oeste 0 1018.5 -0.6 50
2019-12-11 12:00:00 11.4 23 Oeste 47 Oeste 0 1019.1 0.6 57
2019-12-11 11:00:00 10.8 22 Oeste 42 Oeste 0 1019.2 1 63
2019-12-11 10:00:00 10.1 19 Oeste 41 Oeste 0 1019.1 1.7 69
2019-12-11 09:00:00 9.3 23 Oeste 43 Oeste 0.2 1018.5 1.8 82
2019-12-11 08:00:00 9.6 25 Oeste 56 Noroeste 0.6 1018.2 3.5 93
2019-12-11 07:00:00 9.8 30 Oeste 54 Oeste 1.7 1017.4 2.6 94
2019-12-11 06:00:00 10.4 26 Oeste 58 Noroeste 0.8 1016.7 3.4 94
2019-12-11 05:00:00 11.8 37 Noroeste 65 Noroeste 0.2 1014.7 1.2 91
2019-12-11 04:00:00 13.2 26 Noroeste 49 Noroeste 0 1014.8 0.6 86
2019-12-11 03:00:00 10.8 9 Sudoeste 19 Sur 0 1013.3 -1.5 68
2019-12-11 02:00:00 9.1 15 Sur 18 Sur 0 1013.5 -1.8 80
2019-12-11 01:00:00 9.7 12 Sudoeste 18 Sudoeste 0 1014.2 -1.9 78
2019-12-11 00:00:00 10.1 13 Sudoeste 20 Sur 0 1014.8 -1.4 72
2019-12-10 23:00:00 9.3 15 Sur 19 Sudoeste 0 1015.3 -1.5 79
2019-12-10 22:00:00 10.3 12 Sudoeste 15 Sudoeste 0 1016.1 -1.5 74
2019-12-10 21:00:00 10.4 11 Sudoeste 13 Sudoeste 0 1016.2 -1.3 80
2019-12-10 20:00:00 11.6 9 Sur 10 Sur 0 1016.8 -0.4 77
2019-12-10 19:00:00 12.4 4 Sudoeste 29 Oeste 0 1017.6 -0.2 78
2019-12-10 18:00:00 12.8 17 Oeste 26 Noroeste 0 1017.5 -0.9 78
2019-12-10 17:00:00 13.1 7 Sudoeste 10 Sur 0 1017.2 -2.2 67
2019-12-10 16:00:00 14.1 5 Sur 8 Sudeste 0 1017.8 -3 68
2019-12-10 15:00:00 14.3 3 Sur 10 Sur 0 1018.4 -3.7 64
2019-12-10 14:00:00 13.9 0 Calma 11 Sur 0 1019.4 -3.1 63
2019-12-10 13:00:00 12.3 6 Sur 10 Sur 0 1020.8 -1.8 65
2019-12-10 12:00:00 13.3 0 Calma 11 Sudoeste 0 1022.1 -1.1 65
2019-12-10 11:00:00 8.4 10 Sudoeste 15 Sudoeste 0 1022.5 -0.6 84
2019-12-10 10:00:00 5.9 13 Sudoeste 18 Sur 0 1022.6 -1 92
2019-12-10 09:00:00 5.5 10 Sudoeste 18 Sudoeste 0 1023.2 -1 84
2019-12-10 08:00:00 5.2 14 Sudoeste 19 Sudoeste 0 1023.1 -1.7 89
2019-12-10 07:00:00 5.5 13 Sudoeste 17 Sudoeste 0 1023.6 -2.1 90
2019-12-10 06:00:00 6.2 12 Sudoeste 17 Sudoeste 0 1024.2 -2.1 88
2019-12-10 05:00:00 5.9 12 Sudoeste 17 Sudoeste 0 1024.8 -2.2 89
2019-12-10 04:00:00 7.1 12 Sudoeste 15 Sudoeste 0 1025.7 -1.9 87
2019-12-10 03:00:00 7.3 12 Sur 18 Sudoeste 0 1026.3 -1.7 87
2019-12-10 02:00:00 7.8 9 Sudoeste 19 Sudoeste 0 1027 -0.7 86
2019-12-10 01:00:00 8.7 7 Sudoeste 14 Sur 0 1027.6 -0.3 85
2019-12-10 00:00:00 10.1 6 Sudoeste 13 Sudoeste 0 1028 -0.1 81
2019-12-09 23:00:00 10.3 6 Sudoeste 13 Sudoeste 0 1027.7 -0.1 81
2019-12-09 22:00:00 12.2 8 Oeste 22 Oeste 0 1027.9 0.7 77
2019-12-09 21:00:00 12.3 10 Oeste 21 Noroeste 0 1028.1 0.9 78
2019-12-09 20:00:00 12.7 14 Noroeste 31 Noroeste 0 1027.8 1.4 78
2019-12-09 19:00:00 12.9 18 Noroeste 39 Noroeste 0 1027.2 1.2 74
2019-12-09 18:00:00 12.5 24 Noroeste 43 Noroeste 0 1027.2 1.5 81
2019-12-09 17:00:00 13.1 26 Noroeste 47 Noroeste 0 1026.4 0.8 78
2019-12-09 16:00:00 13.1 31 Noroeste 51 Noroeste 0 1026 0.8 74
2019-12-09 15:00:00 13.6 37 Noroeste 53 Noroeste 0 1025.7 0.3 65
2019-12-09 14:00:00 13.5 30 Noroeste 61 Oeste 0 1025.6 0.5 68
2019-12-09 13:00:00 13.4 40 Noroeste 62 Noroeste 0 1025.2 0.8 75
2019-12-09 12:00:00 14.1 28 Noroeste 46 Noroeste 0 1025.4 1.5 60
2019-12-09 11:00:00 13.6 23 Oeste 54 Oeste 0 1025.1 1.2 58
2019-12-09 10:00:00 13.6 30 Oeste 52 Oeste 0 1024.4 1.4 58
2019-12-09 09:00:00 13.3 26 Oeste 53 Oeste 0 1023.9 1.4 55
2019-12-09 08:00:00 13.1 22 Oeste 52 Oeste 0 1023.9 1.9 56
2019-12-09 07:00:00 13 26 Oeste 54 Oeste 0 1023 0.8 55
2019-12-09 06:00:00 12.2 27 Oeste 55 Oeste 0 1022.5 0.8 62
2019-12-09 05:00:00 12.1 32 Oeste 60 Noroeste 0 1022 0.4 67
2019-12-09 04:00:00 12.1 30 Oeste 52 Oeste 0 1022.2 0.6 74
2019-12-09 03:00:00 7.8 9 Sudoeste 15 Sudoeste 0 1021.7 0.1 87
2019-12-09 02:00:00 8.7 8 Sudoeste 28 Sudoeste 0 1021.6 0.3 86
2019-12-09 01:00:00 9.9 5 Oeste 17 Oeste 0 1021.6 0.4 87
2019-12-09 00:00:00 9.4 10 Sur 14 Sur 0 1021.6 0.4 88
2019-12-08 23:00:00 11.6 7 Oeste 22 Oeste 0 1021.3 0.4 79
2019-12-08 22:00:00 11.9 3 Sudoeste 43 Oeste 0 1021.2 0.5 78
2019-12-08 21:00:00 12.4 16 Oeste 32 Oeste 0 1021.2 1.4 79
2019-12-08 20:00:00 12.7 15 Oeste 42 Oeste 0 1020.9 1.3 77
2019-12-08 19:00:00 13 25 Oeste 42 Oeste 0 1020.7 1.7 81
2019-12-08 18:00:00 12.8 23 Oeste 44 Oeste 0 1019.8 2 84
2019-12-08 17:00:00 12.7 26 Oeste 46 Oeste 0 1019.6 2.4 91
2019-12-08 16:00:00 12.5 28 Oeste 52 Noroeste 0.1 1019 1.6 94
2019-12-08 15:00:00 13 40 Noroeste 54 Noroeste 0.4 1017.8 0.3 95
2019-12-08 14:00:00 12.5 2 Sudoeste 12 Sudoeste 0.8 1017.2 0 94
2019-12-08 13:00:00 12.5 5 Sudoeste 15 Sur 0.5 1017.4 0.8 90
2019-12-08 12:00:00 12.1 8 Sur 17 Sur 0.3 1017.5 2 86
2019-12-08 11:00:00 13.4 5 Oeste 15 Oeste 0.1 1017.2 1.8 75
2019-12-08 10:00:00 11.9 11 Sudoeste 21 Sudoeste 0 1016.6 1.2 76
2019-12-08 09:00:00 11.4 11 Sudoeste 19 Sudoeste 0 1015.5 -0.4 75
2019-12-08 08:00:00 10.7 14 Sudoeste 17 Sudoeste 0 1015.4 -0.5 81
2019-12-08 07:00:00 10.2 14 Sur 41 Sur 0 1015.4 -0.7 84
2019-12-08 06:00:00 10 12 Sudoeste 19 Sudoeste 0 1015.9 -0.6 85
2019-12-08 05:00:00 9.3 12 Sudoeste 17 Sudoeste 0 1015.9 -1.3 88
2019-12-08 04:00:00 10.6 11 Sudoeste 19 Sur 0 1016.1 -1.6 76
2019-12-08 03:00:00 8.4 14 Sudoeste 19 Sudoeste 0 1016.5 -1.5 87
2019-12-08 02:00:00 8.8 14 Sudoeste 18 Sudoeste 0 1017.2 -1 88
2019-12-08 01:00:00 9.2 13 Sudoeste 17 Sudoeste 0 1017.7 -0.6 90
2019-12-08 00:00:00 9.4 12 Sudoeste 16 Sudoeste 0 1018 -0.5 87
2019-12-07 23:00:00 10.2 11 Sudoeste 14 Sudoeste 0 1018.2 -0.1 87
2019-12-07 22:00:00 11.5 10 Sudoeste 14 Sudoeste 0 1018.3 0.3 82
2019-12-07 21:00:00 12.1 9 Sudoeste 12 Sudoeste 0 1018.5 0.5 83
2019-12-07 20:00:00 12.6 10 Sudoeste 12 Sudoeste 0 1018.3 1.4 83
2019-12-07 19:00:00 12.4 10 Sur 14 Sur 0 1018 0.6 84
2019-12-07 18:00:00 13.7 6 Sur 8 Sudoeste 0 1018 0.5 75
2019-12-07 17:00:00 15 0 Calma 6 Sudeste 0 1016.9 -1.1 69
2019-12-07 16:00:00 16.4 2 Este 10 Este 0 1017.4 -1.2 62
2019-12-07 15:00:00 15.2 4 Nordeste 8 Este 0 1017.5 -1.5 68
2019-12-07 14:00:00 14.7 0 Calma -- -- 0 1018 -1.3 66
2019-12-07 13:00:00 15.9 0 Calma 10 Sudeste 0 1018.6 -0.4 58
2019-12-07 12:00:00 13 8 Sur 14 Sudoeste 0 1019 0.4 73
2019-12-07 11:00:00 9.3 12 Sudoeste 16 Sudoeste 0 1019.3 0.8 85
2019-12-07 10:00:00 7.2 13 Sudoeste 19 Sudoeste 0 1019 0.9 90
2019-12-07 09:00:00 6.9 14 Sudoeste 19 Sudoeste 0 1018.6 1.1 88
2019-12-07 08:00:00 6.4 13 Sudoeste 19 Sudoeste 0 1018.5 1 90
2019-12-07 07:00:00 6 14 Sudoeste 17 Sudoeste 0 1018.1 0.3 92
2019-12-07 06:00:00 6.7 12 Sudoeste 17 Sudoeste 0 1017.5 -0.4 92
2019-12-07 05:00:00 6.8 12 Sudoeste 16 Sudoeste 0 1017.5 -0.8 92
2019-12-07 04:00:00 6.9 11 Sudoeste 17 Sudoeste 0 1017.8 -1 93
2019-12-07 03:00:00 6.6 14 Sur 17 Sudoeste 0 1017.9 -1.2 92
2019-12-07 02:00:00 7.2 13 Sudoeste 17 Sudoeste 0 1018.3 -0.7 91
2019-12-07 01:00:00 7.4 12 Sudoeste 17 Sudoeste 0 1018.8 0.1 91
2019-12-07 00:00:00 7.6 11 Sudoeste 15 Sudoeste 0 1019.1 1 91
2019-12-06 23:00:00 8.3 9 Sudoeste 16 Sudoeste 0 1019 1.1 90
2019-12-06 22:00:00 8.1 11 Sudoeste 15 Sudoeste 0 1018.7 1.4 91
2019-12-06 21:00:00 8.6 9 Sudoeste 12 Sur 0 1018.1 0.8 92
2019-12-06 20:00:00 10 2 Sudoeste 14 Oeste 0 1017.9 0.8 87
2019-12-06 19:00:00 11 4 Sudoeste 12 Oeste 0 1017.3 0.1 84
2019-12-06 18:00:00 11.4 2 Sudoeste 7 Sudoeste 0 1017.3 0.2 83
2019-12-06 17:00:00 12.2 0 Calma 6 Sudoeste 0 1017.1 0 79
2019-12-06 16:00:00 12.6 0 Calma 14 Oeste 0 1017.2 -0.7 81
2019-12-06 15:00:00 12.4 9 Noroeste 13 Oeste 0 1017.1 -1.6 81
2019-12-06 14:00:00 13.4 0 Calma 9 Oeste 0 1017.1 -1.5 78
2019-12-06 13:00:00 12.8 6 Oeste 13 Oeste 0 1017.9 -0.5 77
2019-12-06 12:00:00 11.6 2 Sudoeste 13 Sudoeste 0 1018.7 0.8 75
2019-12-06 11:00:00 9.3 8 Sur 15 Sur 0 1018.6 1 83
2019-12-06 10:00:00 6.4 9 Sudoeste 17 Sur 0 1018.4 0.3 93
2019-12-06 09:00:00 5.1 13 Sur 18 Sur 0 1017.9 -0.2 93
2019-12-06 08:00:00 5.4 10 Sudoeste 15 Sur 0 1017.6 -0.7 93
2019-12-06 07:00:00 5.3 9 Sudoeste 17 Sudoeste 0 1018.1 -0.3 93
2019-12-06 06:00:00 5.1 10 Sudoeste 16 Sur 0 1018.1 -0.3 93
2019-12-06 05:00:00 5.4 10 Sudoeste 14 Sudoeste 0 1018.3 0.1 93
2019-12-06 04:00:00 6.2 10 Sudoeste 15 Sudoeste 0 1018.4 -0.2 91
2019-12-06 03:00:00 6.7 6 Sudoeste 19 Oeste 0 1018.4 -0.5 90
2019-12-06 02:00:00 6.7 10 Sudoeste 16 Sudoeste 0 1018.2 -0.6 90
2019-12-06 01:00:00 7.4 11 Sudoeste 14 Sudoeste 0 1018.6 -0.9 90
2019-12-06 00:00:00 8.7 10 Sur 15 Sudeste 0 1018.9 -0.4 90
2019-12-05 23:00:00 9.4 12 Sudeste 18 Sudeste 0 1018.8 -1.2 89
2019-12-05 22:00:00 9.9 7 Sudeste 18 Este 0 1019.5 -0.2 90
2019-12-05 21:00:00 10.8 9 Sudeste 19 Sudeste 0 1019.3 -0.3 89
2019-12-05 20:00:00 11.1 10 Sudeste 16 Sudeste 0 1020 0.7 89
2019-12-05 19:00:00 11.8 7 Sudeste 17 Este 0 1019.7 0.7 88
2019-12-05 18:00:00 12.7 9 Este 16 Este 0 1019.6 0.5 84
2019-12-05 17:00:00 12.8 6 Nordeste 12 Nordeste 0 1019.3 0.1 84
2019-12-05 16:00:00 12.8 3 Este 10 Este 0 1019 -0.7 83
2019-12-05 15:00:00 13.1 2 Nordeste 5 Este 0 1019.1 -0.7 85
2019-12-05 14:00:00 12.9 2 Sudeste 9 Sur 0 1019.2 -0.3 88
2019-12-05 13:00:00 12.3 5 Sudoeste 8 Sudoeste 0 1019.7 0.5 87
2019-12-05 12:00:00 11.5 6 Sur 12 Sudoeste 0 1019.8 1.1 91
2019-12-05 11:00:00 10.6 5 Sudoeste 13 Sudoeste 0.1 1019.5 1.5 94
2019-12-05 10:00:00 9.8 8 Sudoeste 13 Sudoeste 0 1019.2 1.8 94
2019-12-05 09:00:00 10 5 Sur 11 Sur 0.2 1018.7 1.8 93
2019-12-05 08:00:00 11 7 Oeste 15 Oeste 0.2 1018 1.5 94
2019-12-05 07:00:00 10.4 8 Sudoeste 25 Nordeste 1.4 1017.4 0.6 94
2019-12-05 06:00:00 11 3 Oeste 18 Sudoeste 0.4 1016.9 0.6 95
2019-12-05 05:00:00 9.9 5 Sudoeste 18 Sudoeste 2 1016.5 0.7 94
2019-12-05 04:00:00 9.4 6 Sudoeste 17 Sudoeste 2.2 1016.8 1.3 94
2019-12-05 03:00:00 9 5 Sudoeste 22 Sudoeste 3 1016.3 1.3 94
2019-12-05 02:00:00 9.1 2 Sudoeste 25 Oeste 3 1015.8 1.1 94
2019-12-05 01:00:00 9.9 8 Oeste 24 Oeste 2.3 1015.5 1.4 94
2019-12-05 00:00:00 10.8 13 Noroeste 22 Noroeste 0.7 1015 1.2 93
2019-12-04 23:00:00 10.9 8 Oeste 22 Oeste 0 1014.7 1.3 78
2019-12-04 22:00:00 10.2 3 Sudoeste 16 Oeste 0 1014.1 1.6 72
2019-12-04 21:00:00 9.2 7 Sudoeste 15 Oeste 0 1013.8 1.9 76
2019-12-04 20:00:00 10.4 2 Sudoeste 12 Oeste 0 1013.4 1.8 69
2019-12-04 19:00:00 9.7 5 Sudoeste 10 Sudoeste 0 1012.5 1.6 78
2019-12-04 18:00:00 11.1 5 Oeste 18 Oeste 0 1011.9 1.7 75
2019-12-04 17:00:00 11.4 10 Oeste 19 Oeste 0 1011.6 1.1 75
2019-12-04 16:00:00 12 11 Oeste 24 Oeste 0 1010.9 0.5 73
2019-12-04 15:00:00 11.9 14 Oeste 22 Oeste 0 1010.2 -0.7 74
2019-12-04 14:00:00 12.1 12 Oeste 19 Oeste 0 1010.5 -0.4 72
2019-12-04 13:00:00 12.3 2 Sudoeste 12 Sur 0 1010.4 0 63
2019-12-04 12:00:00 10.4 6 Sur 13 Sudoeste 0 1010.9 1.5 68
2019-12-04 11:00:00 7.4 9 Sudoeste 16 Sudoeste 0 1010.9 2 76
2019-12-04 10:00:00 4.2 10 Sudoeste 17 Sudoeste 0 1010.4 1.8 87
2019-12-04 09:00:00 3.2 12 Sudoeste 15 Sudoeste 0 1009.4 1 91
2019-12-04 08:00:00 3 12 Sudoeste 17 Sudoeste 0 1008.9 0.4 91
2019-12-04 07:00:00 2.6 10 Sudoeste 18 Sudoeste 0 1008.6 -0.5 91
2019-12-04 06:00:00 2.3 14 Sudoeste 17 Sudoeste 0 1008.4 -1 94
2019-12-04 05:00:00 2.5 13 Sudoeste 17 Sudoeste 0 1008.5 -1.1 94
2019-12-04 04:00:00 2.4 12 Sur 15 Sur 0 1009.1 -1.1 94
2019-12-04 03:00:00 2.6 10 Sudoeste 17 Sudoeste 0 1009.4 -1.7 94
2019-12-04 02:00:00 2.6 11 Sur 15 Sudoeste 0 1009.6 -2.2 94
2019-12-04 01:00:00 2.8 12 Sudoeste 16 Sudoeste 0 1010.2 -2 94
2019-12-04 00:00:00 3.3 12 Sur 15 Sur 0 1011.1 -1.4 94
2019-12-03 23:00:00 4.1 8 Sudoeste 14 Sur 0 1011.8 -0.9 93
2019-12-03 22:00:00 4.4 10 Sudoeste 13 Sudoeste 0 1012.2 -0.5 91
2019-12-03 21:00:00 6 6 Sur 13 Sudeste 0 1012.5 -0.8 88
2019-12-03 20:00:00 7.2 10 Sudeste 18 Sudeste 0 1012.7 -0.5 74
2019-12-03 19:00:00 7.8 10 Sudeste 17 Sudeste 0 1012.7 -1.1 73
2019-12-03 18:00:00 8.4 6 Sudeste 16 Este 0 1013.3 -1 69
2019-12-03 17:00:00 9.7 11 Nordeste 18 Este 0 1013.2 -2 64
2019-12-03 16:00:00 10.5 7 Este 18 Nordeste 0 1013.8 -2.5 62
2019-12-03 15:00:00 10.5 8 Este 16 Este 0 1014.3 -3.2 60
2019-12-03 14:00:00 10.9 9 Este 17 Este 0 1015.2 -2.8 59
2019-12-03 13:00:00 10.7 9 Este 19 Este 0 1016.3 -2 60
2019-12-03 12:00:00 10.4 0 Calma 8 Sudoeste 0 1017.5 -0.9 65
2019-12-03 11:00:00 8.6 6 Sudoeste 11 Sur 0 1018 -0.4 85
2019-12-03 10:00:00 7.9 8 Sudoeste 13 Sur 0 1018.3 -0.5 86
2019-12-03 09:00:00 8 6 Sudoeste 10 Sur 0 1018.4 -0.6 82
2019-12-03 08:00:00 8.3 6 Sudoeste 12 Sudoeste 0 1018.4 -1.3 80
2019-12-03 07:00:00 8 6 Sudoeste 14 Sudoeste 0 1018.8 -1.2 84
2019-12-03 06:00:00 8.3 8 Sudoeste 14 Este 0 1019 -1.4 80
2019-12-03 05:00:00 9.3 2 Este 21 Este 0 1019.7 -0.6 74
2019-12-03 04:00:00 10.1 12 Nordeste 25 Este 0 1020 -0.6 66
2019-12-03 03:00:00 9.3 4 Nordeste 12 Sudoeste 0 1020.4 -0.5 75
2019-12-03 02:00:00 8.1 8 Sudoeste 16 Sur 0 1020.3 -0.8 87
2019-12-03 01:00:00 8.3 11 Sur 19 Sur 0 1020.6 -0.8 85
2019-12-03 00:00:00 8.4 8 Sur 11 Sur 0 1020.9 -0.9 83
2019-12-02 23:00:00 8.6 7 Sudoeste 11 Sudoeste 0 1021.1 -0.7 81
2019-12-02 22:00:00 8.8 6 Sudoeste 10 Sudoeste 0 1021.4 0.3 78
2019-12-02 21:00:00 8.9 5 Sudoeste 11 Sur 0 1021.8 1 80
2019-12-02 20:00:00 10 3 Este 16 Nordeste 0 1021.8 1.5 70
2019-12-02 19:00:00 10.6 13 Nordeste 31 Este 0 1021.1 0.9 62
2019-12-02 18:00:00 10.7 19 Este 34 Este 0 1020.8 1.3 65
2019-12-02 17:00:00 10.8 20 Nordeste 36 Nordeste 0 1020.3 0.6 68
2019-12-02 16:00:00 11.2 15 Nordeste 35 Este 0 1020.2 0.4 69
2019-12-02 15:00:00 11.4 22 Nordeste 37 Nordeste 0 1019.5 -0.1 68
2019-12-02 14:00:00 11.5 22 Nordeste 40 Nordeste 0 1019.7 0.4 69
2019-12-02 13:00:00 11.9 24 Nordeste 43 Este 0 1019.8 1.2 74
2019-12-02 12:00:00 12 27 Nordeste 43 Este 0 1019.6 1.9 75
2019-12-02 11:00:00 11.9 24 Nordeste 43 Este 0 1019.3 2 80
2019-12-02 10:00:00 11.9 23 Nordeste 48 Norte 0.4 1018.6 2.2 82
2019-12-02 09:00:00 12.2 21 Nordeste 43 Nordeste 0 1017.7 1.8 79
2019-12-02 08:00:00 10.1 7 Sudeste 19 Este 0.5 1017.3 1.6 92
2019-12-02 07:00:00 9.3 6 Sudoeste 23 Oeste 0.4 1016.4 0.7 93
2019-12-02 06:00:00 8.9 8 Oeste 21 Sudoeste 2.4 1015.9 0.4 94
2019-12-02 05:00:00 9 4 Sudoeste 19 Oeste 2.1 1015.7 0.6 93
2019-12-02 04:00:00 9.5 5 Sudoeste 29 Oeste 1.9 1015.7 1.1 93
2019-12-02 03:00:00 9.1 9 Oeste 18 Oeste 3 1015.5 1.3 93
2019-12-02 02:00:00 9.2 2 Sudoeste 17 Oeste 1 1015.1 1.3 92
2019-12-02 01:00:00 9.3 6 Oeste 18 Oeste 0 1014.6 1.4 90
2019-12-02 00:00:00 10.1 6 Oeste 30 Nordeste 2.6 1014.2 1.6 85
2019-12-01 23:00:00 10.8 14 Norte 47 Noroeste 1.4 1013.8 1.9 87
2019-12-01 22:00:00 12.1 17 Norte 30 Norte 0 1013.2 2.2 72
2019-12-01 21:00:00 11.9 19 Norte 42 Norte 0 1012.6 2.5 79
2019-12-01 20:00:00 11.1 35 Norte 46 Norte 0 1011.9 2.2 81
2019-12-01 19:00:00 11.7 31 Norte 52 Norte 0.3 1011 1.9 88
2019-12-01 18:00:00 12.3 17 Norte 33 Norte 0 1010.1 1.4 85
2019-12-01 17:00:00 11.2 6 Oeste 22 Sudoeste 5.1 1009.7 1 89
2019-12-01 16:00:00 12 0 Calma 27 Norte 0 1009.1 0.5 77
2019-12-01 15:00:00 13.9 21 Norte 29 Norte 0 1008.7 0.4 77
2019-12-01 14:00:00 13.7 7 Norte 16 Norte 0 1008.7 1 71
2019-12-01 13:00:00 13.5 10 Noroeste 21 Noroeste 0 1008.6 1.6 71
2019-12-01 12:00:00 13.3 15 Oeste 24 Oeste 0 1008.3 2.4 71
2019-12-01 11:00:00 13.5 3 Sudoeste 10 Sudoeste 0 1007.7 2.5 65
2019-12-01 10:00:00 11.1 5 Sudoeste 12 Sudoeste 0 1007 2.6 73
2019-12-01 09:00:00 10.2 5 Sudoeste 15 Sur 0 1005.9 1.9 75
2019-12-01 08:00:00 10.5 5 Oeste 8 Oeste 0 1005.2 1.2 74
2019-12-01 07:00:00 8.7 3 Sudoeste 16 Sur 0 1004.4 0.1 80
2019-12-01 06:00:00 8.4 12 Sur 16 Sudoeste 0 1004 -0.7 84
2019-12-01 05:00:00 8 10 Sudoeste 14 Sudoeste 0 1004 -1.1 86
2019-12-01 04:00:00 7.4 12 Sudoeste 16 Sur 0 1004.3 -1.4 87
2019-12-01 03:00:00 7.9 5 Sudoeste 20 Sur 0 1004.7 -1.5 80
2019-12-01 02:00:00 7.5 14 Sudoeste 19 Sudoeste 0 1005.1 -1.9 89
2019-12-01 01:00:00 7.2 13 Sur 16 Sur 0 1005.7 -1.6 93
2019-12-01 00:00:00 7.5 12 Sur 15 Sudoeste 0 1006.2 -1.9 92
2019-11-30 23:00:00 8.2 9 Sudoeste 13 Sudoeste 0 1007 -1.2 93
2019-11-30 22:00:00 8.8 9 Sur 14 Sur 0 1007.3 -1.3 92
2019-11-30 21:00:00 9.9 6 Sur 11 Sur 0 1008.1 -0.4 88
2019-11-30 20:00:00 10.1 9 Sur 17 Sur 0 1008.2 0 90
2019-11-30 19:00:00 10.8 8 Sur 16 Sudoeste 0 1008.6 0.4 87
2019-11-30 18:00:00 11.4 8 Sudoeste 10 Sudoeste 0 1008.5 0.2 87
2019-11-30 17:00:00 12.5 6 Sur 9 Sur 0 1008.2 -0.4 86
2019-11-30 16:00:00 13.4 6 Sur 11 Sur 0 1008.2 -0.9 86
2019-11-30 15:00:00 12.3 5 Sur 12 Sur 0 1008.3 -1.3 93
2019-11-30 14:00:00 12.1 8 Sur 13 Sur 0.1 1008.6 -1.5 94
2019-11-30 13:00:00 11.6 7 Sur 32 Sur 2.3 1009.1 -1.1 94
2019-11-30 12:00:00 11.5 7 Sur 12 Sur 1.8 1009.6 0.1 93
2019-11-30 11:00:00 11.9 2 Oeste 22 Sudoeste 0.4 1010.1 2.2 91
2019-11-30 10:00:00 11.8 11 Oeste 45 Oeste 0.3 1010.2 3.7 90
2019-11-30 09:00:00 12.5 29 Noroeste 44 Oeste 2.1 1009.5 4 94
2019-11-30 08:00:00 13.1 9 Oeste 42 Oeste 0.1 1007.9 1.2 81
2019-11-30 07:00:00 13.2 25 Oeste 44 Oeste 0 1006.5 -0.6 82
2019-11-30 06:00:00 12.8 10 Sur 14 Sudoeste 0 1005.5 -2.7 81
2019-11-30 05:00:00 12.7 5 Sur 17 Oeste 0.1 1006.7 -2.4 73
2019-11-30 04:00:00 12.9 5 Sur 12 Sur 0 1007.1 -3.4 68
2019-11-30 03:00:00 10.4 5 Sur 21 Sur 0 1008.2 -3.4 86
2019-11-30 02:00:00 8.7 10 Sudoeste 18 Sudoeste 0 1009.1 -3.3 93
2019-11-30 01:00:00 8.8 13 Sudoeste 17 Sudoeste 0 1010.5 -3.2 94
2019-11-30 00:00:00 9.2 11 Sur 15 Sur 0 1011.6 -2.2 94
2019-11-29 23:00:00 9.5 10 Sudoeste 14 Sudoeste 0 1012.4 -1.8 94
2019-11-29 22:00:00 9.9 9 Sudoeste 12 Sudoeste 0 1013.7 -0.6 91
2019-11-29 21:00:00 10.7 9 Sur 12 Sur 0 1013.8 -0.3 90
2019-11-29 20:00:00 11.5 8 Sur 13 Sudeste 0 1014.2 0.2 88
2019-11-29 19:00:00 13 7 Sudeste 17 Este 0 1014.3 0 80
2019-11-29 18:00:00 13.6 9 Este 15 Este 0 1014.1 -0.3 85
2019-11-29 17:00:00 14.4 2 Este 11 Este 0 1014 -0.7 78
2019-11-29 16:00:00 15.7 3 Nordeste 7 Nordeste 0 1014.3 -0.9 74
2019-11-29 15:00:00 15.6 0 Calma 4 Este 0 1014.4 -1.2 71
2019-11-29 14:00:00 15.4 0 Calma 2 Norte 0 1014.7 -0.7 69
2019-11-29 13:00:00 15.7 0 Calma 3 Norte 0 1015.2 0.4 68
2019-11-29 12:00:00 16.2 0 Calma 8 Sur 0 1015.6 1.2 64
2019-11-29 11:00:00 14.2 6 Sur 11 Sur 0 1015.4 1.5 84
2019-11-29 10:00:00 12.9 8 Sur 12 Sur 0 1014.8 1.6 90
2019-11-29 09:00:00 12.8 5 Sur 9 Sudoeste 0 1014.4 1.8 88
2019-11-29 08:00:00 12.9 4 Sudoeste 8 Sudoeste 0 1013.9 1.9 88
2019-11-29 07:00:00 13.1 0 Calma 20 Oeste 0 1013.2 1.9 88
2019-11-29 06:00:00 13.4 13 Oeste 21 Oeste 0 1012.6 2 87
2019-11-29 05:00:00 13.2 4 Oeste 12 Oeste 0 1012 1.9 90
2019-11-29 04:00:00 13.1 4 Sudoeste 14 Oeste 0 1011.3 1.6 91
2019-11-29 03:00:00 13.2 4 Oeste 19 Oeste 0 1010.6 1.6 91
2019-11-29 02:00:00 12.4 6 Sudoeste 9 Sur 0.1 1010.1 1.6 94
2019-11-29 01:00:00 12.7 3 Oeste 12 Sudoeste 0.1 1009.7 2.4 94
2019-11-29 00:00:00 12.3 5 Sur 13 Sur 0.3 1009 3.1 95
2019-11-28 23:00:00 12.4 0 Calma 21 Oeste 0.5 1008.5 3.6 95
2019-11-28 22:00:00 12.4 12 Oeste 18 Oeste 1 1007.3 3.4 94
2019-11-28 21:00:00 12.6 4 Sudoeste 13 Sudoeste 0.1 1005.9 1.6 88
2019-11-28 20:00:00 12.7 8 Sur 28 Este 0 1004.9 -1.2 90
2019-11-28 19:00:00 12.2 0 Calma 17 Sudeste 0 1003.9 -2.9 92
2019-11-28 18:00:00 11.8 8 Sur 19 Sur 0.3 1004.3 -1.7 93
2019-11-28 17:00:00 12.1 8 Sur 14 Sudeste 1.2 1006.1 -0.5 94
2019-11-28 16:00:00 12.5 0 Calma 6 Oeste 1.9 1006.8 0.3 91
2019-11-28 15:00:00 13.3 0 Calma 11 Oeste 0.8 1006 -1.5 87
2019-11-28 14:00:00 13.9 0 Calma 6 Sur 0 1006.6 -1.4 87
2019-11-28 13:00:00 13.4 3 Sur 9 Sudeste 0.1 1006.5 -0.8 90
2019-11-28 12:00:00 12.9 0 Calma 10 Noroeste 0 1007.5 0.6 87
2019-11-28 11:00:00 12.9 6 Oeste 9 Oeste 0 1008 1.5 87
2019-11-28 10:00:00 11.4 8 Sur 11 Sur 0 1007.3 1.6 90
2019-11-28 09:00:00 10.5 8 Sur 11 Sur 0 1006.9 1.9 93
2019-11-28 08:00:00 10.2 4 Sudoeste 16 Oeste 0.4 1006.5 1.9 93
2019-11-28 07:00:00 10.4 7 Sudoeste 14 Sudoeste 0 1005.7 1.2 86
2019-11-28 06:00:00 10.3 9 Sudoeste 15 Sur 0 1005 0.8 84
2019-11-28 05:00:00 9.8 12 Sudoeste 16 Sudoeste 0 1004.6 1.2 88
2019-11-28 04:00:00 9.8 11 Sudoeste 18 Sur 0 1004.5 1 89
2019-11-28 03:00:00 10 11 Sudoeste 18 Sudoeste 0 1004.2 0.5 88
2019-11-28 02:00:00 11.1 11 Sudoeste 19 Sur 0 1003.4 -0.8 84
2019-11-28 01:00:00 10.7 10 Sudoeste 17 Sur 0.4 1003.5 -0.1 88
2019-11-28 00:00:00 10.5 9 Sur 16 Sur 0.7 1003.7 0.4 92
2019-11-27 23:00:00 10.5 9 Sudoeste 12 Sudoeste 0.1 1004.2 1.3 91
2019-11-27 22:00:00 10.9 7 Sudoeste 11 Sudoeste 0.2 1003.6 0.3 88
2019-11-27 21:00:00 11.9 6 Sur 15 Sur 0.5 1003.3 0.5 80
2019-11-27 20:00:00 12.3 10 Sur 22 Sur 0.2 1002.9 0.1 78
2019-11-27 19:00:00 12.5 3 Sur 10 Sur 0 1003.3 1.3 78
2019-11-27 18:00:00 13.2 3 Sur 22 Oeste 0.1 1002.8 0.3 73
2019-11-27 17:00:00 14.3 8 Oeste 20 Oeste 0 1002.8 1.1 62
2019-11-27 16:00:00 13.7 2 Sur 12 Sur 0 1002 0.6 79
2019-11-27 15:00:00 14 4 Oeste 11 Sudoeste 0 1002.5 0.3 74
2019-11-27 14:00:00 14.1 3 Sudoeste 12 Sudoeste 0 1001.7 -0.3 74
2019-11-27 06:00:00 11.9 7 Sudoeste 14 Sur 0 999.1 1.4 74
2019-11-27 05:00:00 11.6 10 Sur 15 Sur 0 998.5 1.4 82
2019-11-27 04:00:00 11 12 Sur 16 Sur 0 998.2 1.8 90
2019-11-27 03:00:00 11.5 3 Sur 15 Sur 0 997.7 1.5 87
2019-11-27 02:00:00 12 9 Sudoeste 15 Sudoeste 0 997.1 2 86
2019-11-27 01:00:00 11.6 8 Sur 24 Sur 0 996.4 0.9 91
2019-11-27 00:00:00 11.5 0 Calma 14 Sudeste 0 996.2 0.7 89
2019-11-26 23:00:00 11.2 9 Sur 15 Sur 0 995.1 -0.1 92
2019-11-26 22:00:00 12.5 2 Noroeste 15 Sur 0 995.5 3.1 87
2019-11-26 21:00:00 12.6 6 Sur 51 Noroeste 0.7 995.5 3.9 89
2019-11-26 20:00:00 13.4 29 Noroeste 67 Noroeste 0.3 995.2 3.8 84
2019-11-26 19:00:00 18.3 6 Oeste 44 Noroeste 0 992.4 -0.1 43
2019-11-26 18:00:00 19.5 4 Sudoeste 14 Oeste 0 991.6 -2.5 41
2019-11-26 17:00:00 18.5 14 Oeste 25 Sur 0 991.4 -4.7 48
2019-11-26 16:00:00 21.1 5 Oeste 37 Sudoeste 0 992.5 -5.3 36
2019-11-26 15:00:00 19.7 6 Sur 26 Oeste 0 994.1 -5.5 49
2019-11-26 14:00:00 17.5 5 Sudeste 16 Sudeste 0 996.1 -4.1 68
2019-11-26 13:00:00 16.8 7 Sudeste 12 Sur 0 997.8 -1.8 69
2019-11-26 12:00:00 16.4 6 Sur 17 Oeste 0 999.6 0.6 69
2019-11-26 11:00:00 15.9 5 Oeste 25 Noroeste 0 1000.2 1 72
2019-11-26 10:00:00 15.6 7 Noroeste 17 Nordeste 0 999.6 0.1 68
2019-11-26 09:00:00 15.8 0 Calma 9 Noroeste 0 999 -0.6 63
2019-11-26 08:00:00 16.5 2 Oeste 10 Oeste 0 999.2 -0.7 59
2019-11-26 07:00:00 14.5 0 Calma 9 Sudoeste 0 999.5 -0.7 72
2019-11-26 06:00:00 13.8 0 Calma 8 Noroeste 0 999.6 -0.9 74
2019-11-26 05:00:00 12.9 3 Noroeste 10 Sur 0 999.9 -1.7 75
2019-11-26 04:00:00 12.5 0 Calma 16 Sur 0 1000.2 -3 77
2019-11-26 03:00:00 10.5 11 Sur 17 Sudoeste 0 1000.5 -3.4 90
2019-11-26 02:00:00 10 13 Sur 16 Sur 0 1001.6 -3.3 93
2019-11-26 01:00:00 11 9 Sudoeste 15 Sur 0 1003.2 -2.4 92
2019-11-26 00:00:00 11.2 9 Sur 12 Sudoeste 0 1003.9 -2.8 90
2019-11-25 23:00:00 12.7 5 Sudeste 17 Sudeste 0 1004.9 -2.3 86
2019-11-25 22:00:00 13.1 9 Sudeste 16 Sudeste 0 1005.6 -1.9 86
2019-11-25 21:00:00 13.1 7 Sur 12 Sur 0 1006.7 -0.7 88
2019-11-25 20:00:00 13.7 6 Sur 10 Sur 0 1007.2 -0.2 86
2019-11-25 19:00:00 13.9 6 Sur 8 Sur 0 1007.5 0.6 86
2019-11-25 18:00:00 14.4 3 Sur 6 Sur 0 1007.4 0.5 83
2019-11-25 17:00:00 14.8 0 Calma 12 Oeste 0 1007.4 0.8 80
2019-11-25 16:00:00 15.1 6 Noroeste 15 Noroeste 0 1006.9 0.1 79
2019-11-25 15:00:00 15.2 11 Noroeste 15 Noroeste 0 1006.9 0 78
2019-11-25 14:00:00 15.7 3 Norte 5 Norte 0 1006.6 0.1 72
2019-11-25 13:00:00 15.9 0 Calma 5 Noroeste 0 1006.8 0.9 69
2019-11-25 12:00:00 15.7 0 Calma 9 Sur 0.1 1006.9 1.9 74
2019-11-25 11:00:00 14.4 7 Sudoeste 15 Sudoeste 0 1006.5 2.4 75
2019-11-25 10:00:00 12.6 11 Sudoeste 15 Sur 0 1005.9 2.4 82
2019-11-25 09:00:00 11.9 11 Sudoeste 15 Sudoeste 0 1005 1.5 84
2019-11-25 08:00:00 12.8 10 Sudoeste 15 Sur 0 1004.1 1.2 83
2019-11-25 07:00:00 12.8 10 Sur 14 Sur 0 1003.5 1.6 83
2019-11-25 06:00:00 12.9 5 Sur 19 Sur 0 1003.5 2.8 88
2019-11-25 05:00:00 13.7 5 Sudoeste 30 Noroeste 0 1002.9 1.8 91
2019-11-25 04:00:00 13.2 9 Oeste 17 Oeste 0 1001.9 0.7 72
2019-11-25 03:00:00 10.9 13 Sudoeste 17 Sudoeste 0 1000.7 -0.7 81
2019-11-25 02:00:00 11.5 12 Sur 16 Sur 0 1001.1 -0.4 81
2019-11-25 01:00:00 12 5 Sur 10 Sudoeste 0 1001.2 -0.6 81
2019-11-25 00:00:00 13 0 Calma 6 Sur 0 1001.4 -0.3 71
2019-11-24 23:00:00 12.2 6 Sur 12 Sur 0 1001.5 1 77
2019-11-24 22:00:00 13.2 8 Oeste 19 Oeste 0 1001.8 1.2 72
2019-11-24 21:00:00 13.6 5 Oeste 13 Sudoeste 0.2 1001.7 0.3 70
2019-11-24 20:00:00 14.6 5 Sudoeste 22 Sur 0.3 1000.5 -2 61
2019-11-24 19:00:00 14.5 10 Sur 19 Sur 0 1000.6 -2.8 60
2019-11-24 18:00:00 13.8 6 Sudeste 24 Sudeste 0 1001.4 -3 63
2019-11-24 17:00:00 13.9 6 Sudeste 15 Sudeste 0 1002.5 -2.7 62
2019-11-24 16:00:00 14.6 7 Sudeste 17 Sudeste 0 1003.4 -2.4 57
2019-11-24 15:00:00 14.5 7 Sudeste 12 Sudeste 0 1004.4 -2.9 62
2019-11-24 14:00:00 14.3 5 Sudeste 10 Sudeste 0 1005.2 -2.7 61
2019-11-24 13:00:00 13.4 6 Sur 10 Sudoeste 0 1005.8 -2.1 68
2019-11-24 12:00:00 13.5 7 Sur 12 Sur 0 1007.3 -0.2 65
2019-11-24 11:00:00 10.4 9 Sur 14 Sudoeste 0 1007.9 1 79
2019-11-24 10:00:00 10.8 7 Sudoeste 12 Sur 0 1007.9 1.3 68
2019-11-24 09:00:00 10.7 6 Sudoeste 15 Oeste 0 1007.5 0.9 68
2019-11-24 08:00:00 12.3 9 Oeste 23 Oeste 0 1006.9 0.7 59
2019-11-24 07:00:00 12.4 16 Oeste 30 Oeste 0 1006.6 0.8 58
2019-11-24 06:00:00 12.2 16 Oeste 35 Oeste 0 1006.6 1.1 63
2019-11-24 05:00:00 12 17 Oeste 32 Oeste 0 1006.2 1.3 65
2019-11-24 04:00:00 11.7 19 Oeste 37 Oeste 0.1 1005.8 0.8 66
2019-11-24 03:00:00 11.7 24 Oeste 42 Oeste 0 1005.5 0.8 67
2019-11-24 02:00:00 11.3 19 Oeste 40 Oeste 0 1004.9 0.1 67
2019-11-24 01:00:00 10.7 20 Oeste 48 Oeste 0 1005 1 71
2019-11-24 00:00:00 10.2 17 Oeste 39 Oeste 0.1 1004.7 1.7 78
2019-11-23 23:00:00 10.2 17 Oeste 47 Oeste 1.3 1004.8 1.8 80
2019-11-23 22:00:00 10.4 14 Oeste 46 Oeste 0.7 1004 1.8 77
2019-11-23 21:00:00 11 23 Oeste 47 Oeste 0.2 1003 1.6 68
2019-11-23 20:00:00 10.1 15 Oeste 50 Oeste 0.9 1003 2.1 78
2019-11-23 19:00:00 10.4 19 Oeste 48 Oeste 0 1002.2 2.5 72
2019-11-23 18:00:00 9.9 17 Oeste 46 Oeste 0.3 1001.4 2.7 82
2019-11-23 17:00:00 10.3 8 Oeste 56 Oeste 0.5 1000.9 2.9 80
2019-11-23 16:00:00 10.5 14 Oeste 53 Oeste 1.6 999.7 2.1 82
2019-11-23 15:00:00 10.9 16 Oeste 53 Oeste 3.2 998.7 1.9 83
2019-11-23 14:00:00 11.7 23 Oeste 46 Oeste 0 998 2.3 73
2019-11-23 13:00:00 11.2 22 Oeste 50 Oeste 0.1 997.6 3.7 76
2019-11-23 12:00:00 11.5 18 Oeste 56 Oeste 0.5 996.8 4.4 76
2019-11-23 11:00:00 11 29 Oeste 59 Oeste 0.2 995.7 5.3 72
2019-11-23 10:00:00 10.9 37 Noroeste 67 Noroeste 0.5 993.9 5.4 79
2019-11-23 09:00:00 9.6 36 Oeste 75 Oeste 2.5 992.4 5.7 78
2019-11-23 08:00:00 11.5 53 Noroeste 85 Oeste 0.7 990.4 6.2 70
2019-11-23 07:00:00 9.9 47 Oeste 79 Oeste 3.7 988.5 5.2 89
2019-11-23 06:00:00 10.1 44 Oeste 86 Oeste 6.4 986.7 5.1 91
2019-11-23 05:00:00 11.6 56 Oeste 91 Oeste 4.5 984.2 4.3 90
2019-11-23 04:00:00 11.5 50 Oeste 91 Oeste 5.9 983.3 3.9 90
2019-11-23 03:00:00 10.7 27 Oeste 61 Oeste 1.7 981.6 2.8 84
2019-11-23 02:00:00 12.4 4 Sudoeste 25 Oeste 0.7 979.9 1.8 75
2019-11-23 01:00:00 12.8 16 Oeste 38 Oeste 0.1 979.4 1.8 80
2019-11-23 00:00:00 14.2 13 Noroeste 32 Oeste 0 978.8 1.9 70
2019-11-22 23:00:00 15.2 14 Noroeste 32 Oeste 0 978.1 1.6 52
2019-11-22 22:00:00 15.8 5 Oeste 22 Oeste 0 977.6 0.3 45
2019-11-22 21:00:00 16.2 4 Sudoeste 21 Sudoeste 0 976.9 -0.5 44
2019-11-22 20:00:00 15.8 6 Sudoeste 19 Sur 0 976.5 -1.5 48
2019-11-22 19:00:00 12.9 8 Sudeste 16 Este 0 977.3 -0.8 83
2019-11-22 18:00:00 13.4 8 Sur 14 Sudeste 0 977.4 1.2 85
2019-11-22 17:00:00 14.9 4 Sur 17 Oeste 0 978 1.8 79
2019-11-22 16:00:00 15.8 10 Oeste 52 Oeste 0.1 978.1 0.6 81
2019-11-22 15:00:00 19.1 4 Sudoeste 23 Sur 0 976.2 -4.2 45
2019-11-22 14:00:00 19.7 9 Sudeste 23 Sudoeste 0 976.2 -3.8 44
2019-11-22 13:00:00 16.8 8 Este 22 Sur 0 977.5 -3.9 50
2019-11-22 12:00:00 16.3 3 Sudoeste 31 Sur 0 980.4 -2.9 48
2019-11-22 11:00:00 16.9 4 Sur 30 Sur 0 980 -5.2 44
2019-11-22 10:00:00 15 4 Sudeste 26 Sudeste 0.1 981.4 -5.7 50
2019-11-22 09:00:00 13.2 5 Este 26 Sur 0 983.3 -5.7 58
2019-11-22 08:00:00 12.6 8 Sudeste 16 Sudeste 0 985.2 -5 54
2019-11-22 07:00:00 13.1 5 Sur 14 Sudeste 0 987.1 -4.8 50
2019-11-22 06:00:00 11.4 7 Sur 18 Sur 0 989 -4.3 62
2019-11-22 05:00:00 10.6 9 Sur 17 Sur 0 990.2 -4.3 60
2019-11-22 04:00:00 11.1 9 Sur 14 Sur 0 991.9 -3.5 58
2019-11-22 03:00:00 12.1 5 Sur 12 Oeste 0 993.3 -3.1 49
2019-11-22 02:00:00 10.5 3 Sudoeste 16 Sudoeste 0 994.5 -2.9 57
2019-11-22 01:00:00 9.2 5 Sur 12 Sur 0 995.4 -2.5 69
2019-11-22 00:00:00 8.2 10 Sur 14 Sudoeste 0 996.4 -2 82
2019-11-21 23:00:00 7.8 12 Sur 16 Sur 0 997.4 -1.7 80
2019-11-21 22:00:00 8.2 9 Sur 15 Sur 0 997.9 -1.2 78
2019-11-21 21:00:00 8.2 8 Sudoeste 15 Sur 0 998.4 -0.5 78
2019-11-21 20:00:00 8.5 7 Sudoeste 12 Sudoeste 0 999.1 0.1 78
2019-11-21 19:00:00 10.4 8 Sur 14 Sur 0 999.1 0.1 67
2019-11-21 18:00:00 11.1 6 Sur 10 Sur 0 998.9 0.1 70
2019-11-21 17:00:00 13.1 5 Sudeste 9 Sudeste 0 999 0.4 56
2019-11-21 16:00:00 14.7 4 Nordeste 9 Nordeste 0 999 0.2 56
2019-11-21 15:00:00 14.8 3 Nordeste 9 Nordeste 0 998.8 -0.4 54
2019-11-21 14:00:00 15.3 4 Nordeste 10 Nordeste 0 998.6 -0.9 53
2019-11-21 13:00:00 15.7 0 Calma 9 Sur 0 998.8 -0.5 51
2019-11-21 12:00:00 14.6 0 Calma 14 Sur 0.1 999.2 0.2 65
2019-11-21 11:00:00 13.2 7 Sur 19 Sudoeste 0 999.5 1 66
2019-11-21 10:00:00 9.9 9 Sur 16 Sur 0 999.3 0.8 84
2019-11-21 09:00:00 8.1 10 Sur 17 Sudoeste 0 999 0.9 90
2019-11-21 08:00:00 8.2 10 Sur 17 Oeste 0.7 998.5 0.4 88
2019-11-21 07:00:00 6.9 12 Sudoeste 18 Sudoeste 0.1 998.5 0.2 87
2019-11-21 06:00:00 6.4 13 Sudoeste 18 Sudoeste 0 998.1 0 85
2019-11-21 05:00:00 6.7 13 Sudoeste 17 Sudoeste 0 998.1 0.2 85
2019-11-21 04:00:00 6.7 13 Sudoeste 17 Sudoeste 0 998.3 0.3 84
2019-11-21 03:00:00 7.3 11 Sudoeste 17 Sur 0 998.1 0 84
2019-11-21 02:00:00 8.5 5 Sudoeste 15 Sudoeste 0 997.9 -0.1 79
2019-11-21 01:00:00 10.8 10 Oeste 27 Oeste 0 998 -0.1 77
2019-11-21 00:00:00 9.2 9 Oeste 23 Oeste 0 998.1 -0.2 76
2019-11-20 23:00:00 6.5 4 Sur 14 Sudoeste 0 998 -0.6 89
2019-11-20 22:00:00 7.5 10 Sudoeste 15 Sur 0 998.1 -0.3 87
2019-11-20 21:00:00 8.1 12 Sur 14 Sur 0 998.3 -0.2 85
2019-11-20 20:00:00 9.3 11 Sur 16 Sudoeste 0 998.6 -0.2 79
2019-11-20 19:00:00 9.7 10 Sur 14 Sur 0 998.4 -0.4 81
2019-11-20 18:00:00 10.7 8 Sur 11 Sur 0 998.5 -0.4 80
2019-11-20 17:00:00 11.8 7 Sur 12 Sur 0 998.8 -0.5 73
2019-11-20 16:00:00 12 5 Sur 9 Sur 0 998.8 -1.2 70
2019-11-20 15:00:00 11.9 3 Sur 10 Oeste 0 998.9 -1.8 74
2019-11-20 14:00:00 11.6 4 Sur 10 Sudoeste 0 999.3 -1.8 71
2019-11-20 13:00:00 10.4 4 Sudoeste 11 Sur 0 1000 -1.3 74
2019-11-20 12:00:00 9.7 8 Sur 13 Sudoeste 0 1000.7 -0.8 75
2019-11-20 11:00:00 9.2 10 Sudoeste 15 Sudoeste 0 1001.1 -0.5 72
2019-11-20 10:00:00 8.5 11 Sudoeste 19 Sudoeste 0 1001.3 -0.7 75
2019-11-20 09:00:00 6.8 13 Sudoeste 18 Sur 0 1001.5 -1 80
2019-11-20 08:00:00 6.6 13 Sur 17 Sudoeste 0 1001.6 -1.3 79
2019-11-20 07:00:00 7 12 Sudoeste 17 Sudoeste 0 1002 -1.5 76
2019-11-20 06:00:00 7 12 Sudoeste 17 Sudoeste 0 1002.5 -1.6 79
2019-11-20 05:00:00 7.6 10 Sudoeste 17 Sur 0 1002.9 -1.8 70
2019-11-20 04:00:00 6.6 14 Sur 16 Sur 0 1003.5 -1.9 86
2019-11-20 03:00:00 7 12 Sur 17 Sur 0 1004.1 -1.7 84
2019-11-20 02:00:00 7.7 11 Sur 15 Sur 0 1004.7 -2 82
2019-11-20 01:00:00 7.8 8 Sur 16 Sur 0 1005.4 -1.6 81
2019-11-20 00:00:00 8.1 12 Sur 16 Sur 0 1005.8 -1.2 82
2019-11-19 23:00:00 8 9 Sur 14 Sur 0 1006.7 -0.8 82
2019-11-19 22:00:00 7.7 7 Sur 15 Sudoeste 0 1007 -0.5 81
2019-11-19 21:00:00 7.7 12 Sudoeste 16 Sudoeste 0 1007 -0.6 88
2019-11-19 20:00:00 8.2 10 Sudoeste 14 Sudoeste 0 1007.5 -0.2 90
2019-11-19 19:00:00 9.7 9 Sudoeste 12 Sur 0 1007.5 -0.4 88
2019-11-19 18:00:00 10.5 7 Sur 8 Sur 0 1007.6 -0.9 83
2019-11-19 17:00:00 11.9 0 Calma 6 Este 0 1007.7 -1.4 71
2019-11-19 16:00:00 12.8 0 Calma 5 Nordeste 0 1007.9 -1.8 66
2019-11-19 15:00:00 12.5 0 Calma 9 Este 0 1008.5 -2.3 57
2019-11-19 14:00:00 13.1 0 Calma 2 Sudeste 0 1009.1 -2.3 58
2019-11-19 13:00:00 12.2 2 Sur 10 Sudoeste 0 1009.7 -1.9 65
2019-11-19 12:00:00 9.6 8 Sudoeste 10 Sudoeste 0 1010.8 -1.2 75
2019-11-19 11:00:00 8.6 5 Sur 15 Sur 0 1011.4 -0.7 80
2019-11-19 10:00:00 7 12 Sur 16 Sur 0 1011.6 -0.6 85
2019-11-19 09:00:00 5.8 13 Sur 17 Sudoeste 0 1012 -0.1 87
2019-11-19 08:00:00 5.4 13 Sur 18 Sudoeste 0 1012.1 -0.5 88
2019-11-19 07:00:00 5.6 12 Sur 19 Sudoeste 0 1012.2 -0.5 88
2019-11-19 06:00:00 6.1 11 Sudoeste 18 Sur 0 1012.1 -1 86
2019-11-19 05:00:00 6.4 9 Sudoeste 18 Sudoeste 0 1012.6 -0.9 86
2019-11-19 04:00:00 7 9 Sudoeste 17 Sudoeste 0 1012.7 -1.3 85
2019-11-19 03:00:00 7.5 12 Sudoeste 15 Sur 0 1013.1 -1.4 90
2019-11-19 02:00:00 8 8 Sudoeste 13 Sudoeste 0 1013.5 -1.6 86
2019-11-19 01:00:00 8.4 9 Sudoeste 13 Sudoeste 0 1014 -1 91
2019-11-19 00:00:00 8.7 7 Sur 15 Sur 0 1014.5 -0.2 92
2019-11-18 23:00:00 8.7 7 Sur 12 Sur 0.5 1015.1 0.5 93
2019-11-18 22:00:00 8.8 6 Sudoeste 10 Sudoeste 0.6 1015 0.6 91
2019-11-18 21:00:00 9 7 Sur 11 Sur 0.3 1014.7 0.4 92
2019-11-18 20:00:00 9.2 5 Sur 14 Sur 0.5 1014.6 -- 91
2019-11-18 19:00:00 9.3 8 Sur 12 Sur 0.4 1014.4 1 92
2019-11-18 18:00:00 9.3 6 Sur -- -- -- 1014.3 1 92
2019-11-18 17:00:00 -- -- -- -- -- -- -- -- --
2019-11-18 16:00:00 10 4 Sur 11 Sudoeste 0.7 1013.4 -- 91
2019-11-18 15:00:00 10.6 5 Sur 15 Sudoeste 1 1013.3 -0.7 95
2019-11-18 14:00:00 -- 6 Sudoeste 15 Oeste 0.7 -- -- 95
2019-11-18 13:00:00 -- 0 Calma 12 Sudoeste 0 -- -- 99
2019-11-18 12:00:00 -- 7 Sur 14 Sudoeste 0.1 1014 1.9 95
2019-11-18 11:00:00 8 3 Noroeste 35 Noroeste 6.8 1013.8 2.5 95
2019-11-18 10:00:00 8 13 Oeste 28 Oeste 2.2 1012.7 1.7 94
2019-11-18 09:00:00 8.6 4 Sudoeste 29 Oeste 0.8 1012.1 1.9 92
2019-11-18 08:00:00 9.6 0 Calma 23 Noroeste 0.1 1011.3 1.3 89
2019-11-18 07:00:00 10 7 Noroeste 47 Norte 0 1011 1.8 92
2019-11-18 06:00:00 9.7 13 Noroeste 38 Norte 0.2 1010.2 1.1 94
2019-11-18 05:00:00 8.4 2 Noroeste 41 Norte 1.9 1010 1 94
2019-11-18 04:00:00 8.3 17 Oeste 28 Noroeste 1.2 1009.2 0.8 93
2019-11-18 03:00:00 8.6 2 Sudoeste 28 Norte 0.2 1009.1 0.8 94
2019-11-18 02:00:00 8.5 12 Norte 33 Oeste 2.6 1009 1.2 94
2019-11-18 01:00:00 8.2 2 Sudoeste 18 Sudoeste 0.4 1008.4 1.3 94
2019-11-18 00:00:00 9.1 10 Norte 41 Norte 1 1008.3 1.9 94
2019-11-17 23:00:00 9.1 14 Norte 47 Norte 4.4 1007.8 2 94
2019-11-17 22:00:00 8.1 5 Sudoeste 27 Oeste 5.6 1007.1 1.9 94
2019-11-17 21:00:00 7.8 6 Sudoeste 36 Oeste 3.7 1006.4 1.9 94
2019-11-17 20:00:00 7.7 14 Oeste 48 Oeste 4.4 1005.8 2 94
2019-11-17 19:00:00 8.2 22 Oeste 42 Oeste 2.1 1005.2 1.6 91
2019-11-17 18:00:00 8.8 21 Oeste 51 Oeste 1.4 1004.5 0.8 88
2019-11-17 17:00:00 12.2 23 Oeste 51 Oeste 0 1003.8 -0.5 69
2019-11-17 16:00:00 13.3 26 Oeste 45 Oeste 0 1003.6 -0.9 53
2019-11-17 15:00:00 13.7 19 Oeste 49 Oeste 0 1003.7 -0.8 56
2019-11-17 14:00:00 12.8 21 Oeste 60 Oeste 0 1004.3 -0.3 64
2019-11-17 13:00:00 13.2 30 Oeste 50 Oeste 0 1004.5 -0.2 69
2019-11-17 12:00:00 13.1 20 Oeste 44 Oeste 0 1004.5 -0.2 65
2019-11-17 11:00:00 12.2 28 Oeste 53 Oeste 0.1 1004.6 -0.2 83
2019-11-17 10:00:00 10.5 9 Oeste 24 Noroeste 0.2 1004.7 0.2 92
2019-11-17 09:00:00 8.6 9 Sur 16 Sur 1 1004.7 -0.5 94
2019-11-17 08:00:00 8.3 3 Sudoeste 14 Oeste 3 1004.8 -1.2 93
2019-11-17 07:00:00 9.2 10 Sudoeste 14 Sur 0 1004.5 -2.1 91
2019-11-17 06:00:00 9 7 Sur 12 Sur 0 1005.2 -1.6 91
2019-11-17 05:00:00 8.8 11 Sur 15 Sudoeste 0.4 1006 -1.6 89
2019-11-17 04:00:00 9.6 6 Sudoeste 12 Sur 0.4 1006.6 -1.5 82
2019-11-17 03:00:00 9.5 9 Sur 13 Sur 0 1006.8 -1.6 82
2019-11-17 02:00:00 9.6 7 Sudoeste 18 Oeste 0 1007.6 -1.4 75
2019-11-17 01:00:00 9.3 9 Sur 11 Sur 0 1008.1 -1.2 78
2019-11-17 00:00:00 9.3 8 Sur 27 Oeste 0 1008.4 -0.9 77
2019-11-16 23:00:00 10.6 12 Oeste 26 Oeste 0 1009 -0.5 63
2019-11-16 22:00:00 10.1 3 Sudoeste 35 Oeste 0 1009.3 0 61
2019-11-16 21:00:00 10 19 Oeste 37 Oeste 0 1009.3 -0.1 65
2019-11-16 20:00:00 10.2 10 Oeste 36 Oeste 0 1009.5 0.5 59
2019-11-16 19:00:00 10.3 14 Oeste 40 Oeste 0 1009.3 0.7 56
2019-11-16 18:00:00 10.2 19 Oeste 40 Oeste 0 1009.4 0.9 56
2019-11-16 17:00:00 10.8 31 Noroeste 52 Noroeste 0 1009 0.6 69
2019-11-16 16:00:00 11 16 Oeste 44 Oeste 0.1 1008.6 0.6 61
2019-11-16 15:00:00 9.2 17 Oeste 49 Oeste 0.3 1008.5 -0.1 78
2019-11-16 14:00:00 11.8 22 Oeste 54 Oeste 0 1008.4 0.6 62
2019-11-16 13:00:00 11.5 31 Oeste 55 Noroeste 0 1008 0.3 60
2019-11-16 12:00:00 11.3 22 Oeste 56 Oeste 0 1008.6 1.3 61
2019-11-16 11:00:00 11.6 30 Oeste 50 Oeste 0 1007.8 1 60
2019-11-16 10:00:00 10.2 14 Oeste 40 Oeste 0.1 1007.7 1.5 66
2019-11-16 09:00:00 8.9 12 Oeste 51 Oeste 0.4 1007.3 1.4 76
2019-11-16 08:00:00 9.5 15 Oeste 41 Oeste 0 1006.8 0.6 65
2019-11-16 07:00:00 9.5 30 Oeste 54 Oeste 0 1006.2 -0.1 68
2019-11-16 06:00:00 7.8 4 Sudoeste 18 Sudoeste 0 1005.9 -0.3 79
2019-11-16 05:00:00 7.2 6 Sudoeste 21 Oeste 0 1006.2 0.5 85
2019-11-16 04:00:00 6.7 3 Sudoeste -- -- -- 1006.3 1 88
2019-11-16 03:00:00 6.4 5 Sudoeste 17 Sudoeste 0.1 1006.2 1.2 90
2019-11-16 02:00:00 6 5 Sudoeste 16 Sudoeste 0 1005.7 0.6 92
2019-11-16 01:00:00 5.8 3 Sudoeste 17 Sur 0.1 1005.3 1.5 93
2019-11-16 00:00:00 6.1 6 Sur 20 Sur 0.6 1005 1.8 93
2019-11-15 23:00:00 6.4 4 Sur 13 Sudoeste 0.7 1005.1 2.1 93
2019-11-15 22:00:00 5.9 0 Calma 14 Sudoeste 0 1003.8 2.1 93
2019-11-15 21:00:00 6.6 5 Oeste 17 Oeste 0.1 1003.2 1.7 94
2019-11-15 20:00:00 6.4 8 Sur 22 Sudeste 2.8 1003 2.7 94
2019-11-15 19:00:00 6.1 8 Sur 24 Oeste 0.5 1001.7 1.5 94
2019-11-15 18:00:00 7 17 Oeste 49 Noroeste 1 1001.5 1.7 94
2019-11-15 17:00:00 6.3 6 Sudoeste 17 Oeste 0.8 1000.3 0.5 94
2019-11-15 16:00:00 6.6 5 Sudoeste 31 Oeste 0.9 1000.2 0 94
2019-11-15 15:00:00 7.2 10 Oeste 37 Oeste 2.4 999.8 -0.7 94
2019-11-15 14:00:00 6.2 4 Sudoeste 17 Sudoeste 1 999.8 0.6 94
2019-11-15 13:00:00 6.5 0 Calma 24 Sudoeste 2.8 1000.2 1.6 94
2019-11-15 12:00:00 6.2 6 Sudoeste 37 Oeste 7.3 1000.5 -- 94
2019-11-15 11:00:00 7.3 14 Oeste -- -- -- 999.2 2.7 93
2019-11-15 10:00:00 8.5 36 Oeste 72 Noroeste 2.2 998.6 2.8 90
2019-11-15 09:00:00 -- 37 Noroeste -- -- -- -- -- --
2019-11-15 08:00:00 9.9 57 Noroeste 95 Noroeste 0.2 996.5 0.7 78
2019-11-15 07:00:00 11.4 45 Noroeste -- -- -- 995.8 -0.5 77
2019-11-15 06:00:00 11 41 Noroeste -- -- -- 995.7 -0.3 76
2019-11-15 05:00:00 9.8 34 Noroeste -- -- -- 995.8 -0.5 84
2019-11-15 04:00:00 7.3 4 Sudoeste 64 Noroeste 1.5 996.3 -0.2 93
2019-11-15 03:00:00 10.9 40 Noroeste 58 Noroeste 0.1 996 -0.5 77
2019-11-15 02:00:00 7 12 Oeste 32 Oeste 2.2 996.3 -0.6 92
2019-11-15 01:00:00 7.2 10 Oeste 22 Oeste 0.2 996.5 -0.1 84
2019-11-15 00:00:00 5.5 3 Sudoeste 17 Sur 0 996.5 0.1 88